Tozeur, Tunisia
Current Conditions -  °F | °C
As of 2:00 AM on Thursday 23 Oct 2014 (Local Time) from DTTZ Reporting Station
Clear Clear  
Wind Chill: 72°   Ceiling: Unl
Heat Index: 72°   Visibility: 5mi
Dew Point: 28°   Wind: 14mph
Humidity: 20%   Direction: 330°NNW
Pressure: 30"   Gusts: NA
Location:  33.92°N, 8.13°E
Report Text: DTTZ 230100Z 33012KT 8000 NSC 22/M02 Q1016 NOSIG
Loading
Personal Weather Stations






























Interactive Weather Map
Tropical Storm Tracking
New forecast layout! Learn more

10-Day Weather Forecast

Advertisements
Track Severe Weather on mobile